Terminal Aerodrome Forecast
Issued by NWS Newport/Morehead City, NC

Home | Current Version | Previous Version | Graphics & Text | Print | Product List | Glossary On
Versions: 1 2 3 4 5 6 7 8 9 10 11 12 13 14
000
FTUS42 KMHX 161100
TAFEWN
TAF
KEWN 161133Z 1612/1712 00000KT P6SM FEW003 FEW030
      TEMPO 1612/1613 2SM BR BKN003
     FM161300 21006KT P6SM SCT040
     FM161900 22008KT P6SM VCSH BKN040
     FM170300 28009KT P6SM BKN100=

USA.gov is the U.S. government's official web portal to all federal, state and local government web resources and services.